createdAt,value
2023-09-04T00:00:44.710Z,19.25
2023-09-04T00:03:16.603Z,19.24
2023-09-04T00:05:48.475Z,19.23
2023-09-04T00:08:19.768Z,19.21
2023-09-04T00:10:51.272Z,19.18
2023-09-04T00:13:21.855Z,19.23
2023-09-04T00:15:57.969Z,19.20
2023-09-04T00:18:30.425Z,19.21
2023-09-04T00:21:01.643Z,19.18
2023-09-04T00:23:32.813Z,19.20
2023-09-04T00:26:03.964Z,19.23
2023-09-04T00:28:35.098Z,19.25
2023-09-04T00:31:06.368Z,19.24
2023-09-04T00:33:37.615Z,19.25
2023-09-04T00:36:08.811Z,19.30
2023-09-04T00:38:43.824Z,19.30
2023-09-04T00:41:15.357Z,19.32
2023-09-04T00:43:46.191Z,19.31
2023-09-04T00:46:17.710Z,19.31
2023-09-04T00:48:49.844Z,19.30
2023-09-04T00:51:21.275Z,19.24
2023-09-04T00:53:54.273Z,19.23
2023-09-04T00:56:25.442Z,19.25
2023-09-04T00:58:57.125Z,19.27
2023-09-04T01:01:29.274Z,19.30
2023-09-04T01:04:00.507Z,19.30
2023-09-04T01:06:31.460Z,19.30
2023-09-04T01:09:03.271Z,19.27
2023-09-04T01:11:33.768Z,19.31
2023-09-04T01:14:13.503Z,19.31
2023-09-04T01:16:44.523Z,19.36
2023-09-04T01:19:16.039Z,19.35
2023-09-04T01:21:47.445Z,19.32
2023-09-04T01:24:18.928Z,19.28
2023-09-04T01:27:09.940Z,19.28
2023-09-04T01:29:53.497Z,19.30
2023-09-04T01:32:30.674Z,19.31
2023-09-04T01:35:06.689Z,19.28
2023-09-04T01:37:38.872Z,19.27
2023-09-04T01:40:10.530Z,19.27
2023-09-04T01:42:41.408Z,19.27
2023-09-04T01:45:12.227Z,19.28
2023-09-04T01:47:42.285Z,19.30
2023-09-04T01:50:12.628Z,19.27
2023-09-04T01:52:43.533Z,19.30
2023-09-04T01:55:14.826Z,19.27
2023-09-04T01:57:45.020Z,19.27
2023-09-04T02:00:15.874Z,19.27
2023-09-04T02:02:45.732Z,19.21
2023-09-04T02:05:15.806Z,19.21
2023-09-04T02:07:45.902Z,19.23
2023-09-04T02:10:16.380Z,19.18
2023-09-04T02:12:46.435Z,19.15
2023-09-04T02:15:16.592Z,19.10
2023-09-04T02:17:46.628Z,19.04
2023-09-04T02:20:16.705Z,19.04
2023-09-04T02:22:46.962Z,19.08
2023-09-04T02:25:17.214Z,19.10
2023-09-04T02:27:47.275Z,19.08
2023-09-04T02:30:17.458Z,19.07
2023-09-04T02:32:48.106Z,19.07
2023-09-04T02:35:18.854Z,19.07
2023-09-04T02:37:48.946Z,19.08
2023-09-04T02:40:19.166Z,19.11
2023-09-04T02:42:49.458Z,19.11
2023-09-04T02:45:19.654Z,19.11
2023-09-04T02:47:51.411Z,19.08
2023-09-04T02:50:21.851Z,19.07
2023-09-04T02:52:51.973Z,19.06
2023-09-04T02:55:22.176Z,19.08
2023-09-04T02:57:52.253Z,19.13
2023-09-04T03:00:22.908Z,19.15
2023-09-04T03:02:53.089Z,19.15
2023-09-04T03:05:23.679Z,19.18
2023-09-04T03:07:53.907Z,19.20
2023-09-04T03:10:24.056Z,19.18
2023-09-04T03:12:55.322Z,19.18
2023-09-04T03:15:26.193Z,19.18
2023-09-04T03:17:56.391Z,19.18
2023-09-04T03:20:26.783Z,19.17
2023-09-04T03:23:00.530Z,19.17
2023-09-04T03:25:30.720Z,19.17
2023-09-04T03:28:00.776Z,19.15
2023-09-04T03:30:30.832Z,19.13
2023-09-04T03:33:01.132Z,19.15
2023-09-04T03:35:31.773Z,19.15
2023-09-04T03:38:01.917Z,19.17
2023-09-04T03:40:32.544Z,19.15
2023-09-04T03:43:02.418Z,19.21
2023-09-04T03:45:36.581Z,19.20
2023-09-04T03:48:07.173Z,19.20
2023-09-04T03:50:38.169Z,19.25
2023-09-04T03:53:08.303Z,19.25
2023-09-04T03:55:38.425Z,19.24
2023-09-04T03:58:08.526Z,19.28
2023-09-04T04:00:38.962Z,19.30
2023-09-04T04:03:09.197Z,19.31
2023-09-04T04:05:39.167Z,19.34
2023-09-04T04:08:09.273Z,19.38
2023-09-04T04:10:39.474Z,19.41
2023-09-04T04:13:09.548Z,19.45
2023-09-04T04:15:40.692Z,19.50
2023-09-04T04:18:12.396Z,19.54
2023-09-04T04:20:42.508Z,19.55
2023-09-04T04:23:12.568Z,19.61
2023-09-04T04:25:43.365Z,19.61
2023-09-04T04:28:13.506Z,19.61
2023-09-04T04:30:43.585Z,19.57
2023-09-04T04:33:14.524Z,19.62
2023-09-04T04:35:45.097Z,19.58
2023-09-04T04:38:14.974Z,19.57
2023-09-04T04:40:45.176Z,19.59
2023-09-04T04:43:17.749Z,19.58
2023-09-04T04:45:48.475Z,19.62
2023-09-04T04:48:21.385Z,19.68
2023-09-04T04:50:53.099Z,19.66
2023-09-04T04:53:27.128Z,19.62
2023-09-04T04:55:57.827Z,19.59
2023-09-04T04:58:27.973Z,19.58
2023-09-04T05:00:58.782Z,19.58
2023-09-04T05:03:29.145Z,19.57
2023-09-04T05:06:00.390Z,19.55
2023-09-04T05:08:31.209Z,19.54
2023-09-04T05:11:08.247Z,19.54
2023-09-04T05:13:41.062Z,19.54
2023-09-04T05:16:11.419Z,19.55
2023-09-04T05:18:42.769Z,19.57
2023-09-04T05:21:12.876Z,19.55
2023-09-04T05:23:43.216Z,19.59
2023-09-04T05:26:14.289Z,19.64
2023-09-04T05:28:44.413Z,19.68
2023-09-04T05:31:14.349Z,19.74
2023-09-04T05:33:44.548Z,19.75
2023-09-04T05:36:14.703Z,19.81
2023-09-04T05:38:44.944Z,19.83
2023-09-04T05:41:15.456Z,19.83
2023-09-04T05:43:45.539Z,19.82
2023-09-04T05:46:15.689Z,19.85
2023-09-04T05:48:45.711Z,19.92
2023-09-04T05:51:15.555Z,19.92
2023-09-04T05:53:45.607Z,19.92
2023-09-04T05:56:18.181Z,19.90
2023-09-04T05:58:52.441Z,19.90
2023-09-04T06:01:24.857Z,19.92
2023-09-04T06:03:55.359Z,19.92
2023-09-04T06:06:26.974Z,19.90
2023-09-04T06:08:57.077Z,19.95
2023-09-04T06:11:27.141Z,19.96
2023-09-04T06:13:57.576Z,20.00
2023-09-04T06:16:28.221Z,20.02
2023-09-04T06:18:58.146Z,20.03
2023-09-04T06:21:32.419Z,20.08
2023-09-04T06:24:06.931Z,20.09
2023-09-04T06:26:37.065Z,20.17
2023-09-04T06:29:07.123Z,20.26
2023-09-04T06:31:37.274Z,20.23
2023-09-04T06:34:07.401Z,20.23
2023-09-04T06:36:38.115Z,20.19
2023-09-04T06:39:08.536Z,20.19
2023-09-04T06:41:58.714Z,20.16
2023-09-04T06:44:34.906Z,20.15
2023-09-04T06:47:04.530Z,20.19
2023-09-04T06:49:34.308Z,20.17
2023-09-04T06:52:04.485Z,20.17
2023-09-04T06:54:34.516Z,20.16
2023-09-04T06:57:04.677Z,20.17
2023-09-04T06:59:34.679Z,20.17
2023-09-04T07:02:05.767Z,20.16
2023-09-04T07:04:35.844Z,20.17
2023-09-04T07:07:06.024Z,20.16
2023-09-04T07:09:36.123Z,20.12
2023-09-04T07:12:08.085Z,20.13
2023-09-04T07:14:40.046Z,20.10
2023-09-04T07:17:10.334Z,20.12
2023-09-04T07:19:41.291Z,20.09
2023-09-04T07:22:11.982Z,20.09
2023-09-04T07:24:42.026Z,20.09
2023-09-04T07:27:12.742Z,20.10
2023-09-04T07:29:42.912Z,20.13
2023-09-04T07:32:13.291Z,20.09
2023-09-04T07:34:43.153Z,20.06
2023-09-04T07:37:13.789Z,20.05
2023-09-04T07:39:43.913Z,20.06
2023-09-04T07:42:14.645Z,20.05
2023-09-04T07:44:44.744Z,20.10
2023-09-04T07:47:14.569Z,20.09
2023-09-04T07:49:44.742Z,20.06
2023-09-04T07:52:14.700Z,20.08
2023-09-04T07:54:47.063Z,20.05
2023-09-04T07:57:17.400Z,20.03
2023-09-04T07:59:47.488Z,20.08
2023-09-04T08:02:18.391Z,20.03
2023-09-04T08:04:48.734Z,20.08
2023-09-04T08:07:18.844Z,20.08
2023-09-04T08:09:48.939Z,20.05
2023-09-04T08:12:18.980Z,19.99
2023-09-04T08:14:50.182Z,19.99
2023-09-04T08:17:20.617Z,19.99
2023-09-04T08:19:50.676Z,19.99
2023-09-04T08:22:20.503Z,19.96
2023-09-04T08:24:52.946Z,19.95
2023-09-04T08:27:23.039Z,19.96
2023-09-04T08:29:54.259Z,19.97
2023-09-04T08:32:24.359Z,19.97
2023-09-04T08:34:54.535Z,19.99
2023-09-04T08:37:24.618Z,19.97
2023-09-04T08:39:54.474Z,19.95
2023-09-04T08:42:25.474Z,19.99
2023-09-04T08:44:57.420Z,19.97
2023-09-04T08:47:27.782Z,20.02
2023-09-04T08:49:59.878Z,19.99
2023-09-04T08:52:30.168Z,20.00
2023-09-04T08:55:02.190Z,20.02
2023-09-04T08:57:32.909Z,20.00
2023-09-04T09:00:04.408Z,20.02
2023-09-04T09:02:34.227Z,20.03
2023-09-04T09:05:05.389Z,20.05
2023-09-04T09:07:37.008Z,20.03
2023-09-04T09:10:07.709Z,20.02
2023-09-04T09:12:37.911Z,20.05
2023-09-04T09:15:08.376Z,20.03
2023-09-04T09:18:01.123Z,20.03
2023-09-04T09:20:35.797Z,20.02
2023-09-04T09:23:09.397Z,20.02
2023-09-04T09:25:40.604Z,20.03
2023-09-04T09:28:11.095Z,20.03
2023-09-04T09:30:42.200Z,20.00
2023-09-04T09:33:18.043Z,20.00
2023-09-04T09:35:48.098Z,19.97
2023-09-04T09:38:18.204Z,19.75
2023-09-04T09:40:48.367Z,19.48
2023-09-04T09:43:19.011Z,19.30
2023-09-04T09:45:53.251Z,19.20
2023-09-04T09:48:26.565Z,19.14
2023-09-04T09:50:57.127Z,19.15
2023-09-04T09:53:27.216Z,19.15
2023-09-04T09:55:57.956Z,19.20
2023-09-04T09:58:28.442Z,19.23
2023-09-04T10:00:59.913Z,19.21
2023-09-04T10:03:30.391Z,19.24
2023-09-04T10:06:04.627Z,19.27
2023-09-04T10:08:44.662Z,19.28
2023-09-04T10:11:18.117Z,19.30
2023-09-04T10:14:23.212Z,19.28
2023-09-04T10:16:58.528Z,19.28
2023-09-04T10:19:33.827Z,19.30
2023-09-04T10:22:09.804Z,19.30
2023-09-04T10:24:45.670Z,19.35
2023-09-04T10:27:19.578Z,19.39
2023-09-04T10:29:57.039Z,19.41
2023-09-04T10:32:28.260Z,19.35
2023-09-04T10:34:58.526Z,19.32
2023-09-04T10:37:31.839Z,19.34
2023-09-04T10:40:03.326Z,19.38
2023-09-04T10:42:35.919Z,19.39
2023-09-04T10:45:16.925Z,19.39
2023-09-04T10:47:51.605Z,19.39
2023-09-04T10:50:30.830Z,19.44
2023-09-04T10:53:03.223Z,19.48
2023-09-04T10:55:40.298Z,19.51
2023-09-04T10:58:10.861Z,19.52
2023-09-04T11:00:42.832Z,19.55
2023-09-04T11:03:26.625Z,19.54
2023-09-04T11:06:08.210Z,19.57
2023-09-04T11:08:41.704Z,19.58
2023-09-04T11:11:12.289Z,19.59
2023-09-04T11:13:42.884Z,19.61
2023-09-04T11:16:12.935Z,19.58
2023-09-04T11:18:43.033Z,19.55
2023-09-04T11:21:13.670Z,19.54
2023-09-04T11:23:44.076Z,19.54
2023-09-04T11:26:14.077Z,19.55
2023-09-04T11:28:45.111Z,19.58
2023-09-04T11:31:15.791Z,19.57
2023-09-04T11:33:51.247Z,19.54
2023-09-04T11:36:21.880Z,19.54
2023-09-04T11:39:05.989Z,19.59
2023-09-04T11:41:36.280Z,19.58
2023-09-04T11:44:08.035Z,19.58
2023-09-04T11:46:38.614Z,19.61
2023-09-04T11:49:10.674Z,19.59
2023-09-04T11:51:40.972Z,19.59
2023-09-04T11:54:11.346Z,19.62
2023-09-04T11:56:42.845Z,19.65
2023-09-04T11:59:12.451Z,19.62
2023-09-04T12:01:43.414Z,19.61
2023-09-04T12:04:13.575Z,19.62
2023-09-04T12:06:43.912Z,19.59
2023-09-04T12:09:14.844Z,19.57
2023-09-04T12:11:45.009Z,19.58
2023-09-04T12:14:15.058Z,19.55
2023-09-04T12:16:48.529Z,19.55
2023-09-04T12:19:19.280Z,19.57
2023-09-04T12:21:49.140Z,19.61
2023-09-04T12:24:20.935Z,19.59
2023-09-04T12:26:53.128Z,19.61
2023-09-04T12:29:23.531Z,19.64
2023-09-04T12:31:54.538Z,19.66
2023-09-04T12:34:30.821Z,19.74
2023-09-04T12:37:01.628Z,19.81
2023-09-04T12:39:31.734Z,19.89
2023-09-04T12:42:05.641Z,19.93
2023-09-04T12:44:36.041Z,19.93
2023-09-04T12:47:06.248Z,19.90
2023-09-04T12:49:36.333Z,19.87
2023-09-04T12:52:06.830Z,19.82
2023-09-04T12:54:38.618Z,19.78
2023-09-04T12:57:09.921Z,19.78
2023-09-04T12:59:40.031Z,19.76
2023-09-04T13:02:10.093Z,19.74
2023-09-04T13:04:49.774Z,19.69
2023-09-04T13:07:19.860Z,19.66
2023-09-04T13:09:50.344Z,19.66
2023-09-04T13:15:23.800Z,19.66
2023-09-04T13:17:53.684Z,19.66
2023-09-04T13:20:46.274Z,19.68
2023-09-04T13:23:16.378Z,19.64
2023-09-04T13:25:49.819Z,19.69
2023-09-04T13:28:23.695Z,19.75
2023-09-04T13:31:05.523Z,19.79
2023-09-04T13:33:39.721Z,19.87
2023-09-04T13:36:29.843Z,19.87
2023-09-04T13:38:59.920Z,19.83
2023-09-04T13:41:30.041Z,19.82
2023-09-04T13:44:03.899Z,19.76
2023-09-04T13:46:35.959Z,19.75
2023-09-04T13:49:06.678Z,19.76
2023-09-04T13:51:36.953Z,19.78
2023-09-04T13:54:09.221Z,19.74
2023-09-04T13:56:39.840Z,19.71
2023-09-04T13:59:10.299Z,19.69
2023-09-04T14:02:06.628Z,19.65
2023-09-04T14:04:36.826Z,19.68
2023-09-04T14:07:07.137Z,19.78
2023-09-04T14:09:38.017Z,19.87
2023-09-04T14:12:09.460Z,20.02
2023-09-04T14:14:39.550Z,20.15
2023-09-04T14:17:09.673Z,20.34
2023-09-04T14:19:39.691Z,20.44
2023-09-04T14:22:09.624Z,20.58
2023-09-04T14:24:39.735Z,20.54
2023-09-04T14:27:09.561Z,20.43
2023-09-04T14:29:39.638Z,20.41
2023-09-04T14:32:09.768Z,20.32
2023-09-04T14:34:39.629Z,20.19
2023-09-04T14:39:42.530Z,20.12
2023-09-04T14:42:13.304Z,20.16
2023-09-04T14:44:45.578Z,20.09
2023-09-04T14:47:16.040Z,20.08
2023-09-04T14:49:46.070Z,20.09
2023-09-04T14:52:16.168Z,20.13
2023-09-04T14:54:46.594Z,20.12
2023-09-04T14:57:17.033Z,20.15
2023-09-04T14:59:47.096Z,20.17
2023-09-04T15:02:17.183Z,20.17
2023-09-04T15:04:47.251Z,20.22
2023-09-04T15:07:17.429Z,20.24
2023-09-04T15:09:47.575Z,20.20
2023-09-04T15:12:18.173Z,20.24
2023-09-04T15:14:48.227Z,20.29
2023-09-04T15:17:18.761Z,20.39
2023-09-04T15:19:48.814Z,20.48
2023-09-04T15:22:18.644Z,20.50
2023-09-04T15:24:48.480Z,20.44
2023-09-04T15:27:19.405Z,20.39
2023-09-04T15:29:50.050Z,20.34
2023-09-04T15:32:19.912Z,20.30
2023-09-04T15:34:50.082Z,20.19
2023-09-04T15:37:20.209Z,20.16
2023-09-04T15:39:50.264Z,20.09
2023-09-04T15:42:20.663Z,20.03
2023-09-04T15:44:50.791Z,19.97
2023-09-04T15:47:20.700Z,19.95
2023-09-04T15:49:50.644Z,19.87
2023-09-04T15:52:20.532Z,19.82
2023-09-04T15:54:50.584Z,19.87
2023-09-04T15:57:20.669Z,19.92
2023-09-04T15:59:50.588Z,19.96
2023-09-04T16:02:20.711Z,20.02
2023-09-04T16:04:50.785Z,20.03
2023-09-04T16:07:20.641Z,20.06
2023-09-04T16:09:50.438Z,20.09
2023-09-04T16:12:20.704Z,20.16
2023-09-04T16:14:50.716Z,20.19
2023-09-04T16:17:21.045Z,20.26
2023-09-04T16:19:51.114Z,20.23
2023-09-04T16:22:22.583Z,20.22
2023-09-04T16:24:52.907Z,20.24
2023-09-04T16:27:22.982Z,20.26
2023-09-04T16:29:53.024Z,20.34
2023-09-04T16:32:23.747Z,20.46
2023-09-04T16:34:53.585Z,20.60
2023-09-04T16:37:23.805Z,20.70
2023-09-04T16:39:53.609Z,20.65
2023-09-04T16:42:23.456Z,20.56
2023-09-04T16:44:53.513Z,20.43
2023-09-04T16:47:27.015Z,20.40
2023-09-04T16:49:57.065Z,20.48
2023-09-04T16:52:27.351Z,20.53
2023-09-04T16:54:57.446Z,20.58
2023-09-04T16:57:27.462Z,20.56
2023-09-04T16:59:57.474Z,20.70
2023-09-04T17:02:28.053Z,20.67
2023-09-04T17:04:58.151Z,20.74
2023-09-04T17:07:28.010Z,20.67
2023-09-04T17:09:58.676Z,20.46
2023-09-04T17:12:29.244Z,20.36
2023-09-04T17:14:59.776Z,20.29
2023-09-04T17:17:29.888Z,20.23
2023-09-04T17:19:59.941Z,20.22
2023-09-04T17:22:29.786Z,20.10
2023-09-04T17:24:59.564Z,20.05
2023-09-04T17:27:29.415Z,20.00
2023-09-04T17:29:59.514Z,19.96
2023-09-04T17:32:29.984Z,19.89
2023-09-04T17:35:00.414Z,19.86
2023-09-04T17:37:30.317Z,19.81
2023-09-04T17:40:00.345Z,19.75
2023-09-04T17:42:30.434Z,19.65
2023-09-04T17:45:00.609Z,19.57
2023-09-04T17:47:30.719Z,19.51
2023-09-04T17:50:01.610Z,19.51
2023-09-04T17:52:31.756Z,19.50
2023-09-04T17:55:01.672Z,19.48
2023-09-04T17:57:31.548Z,19.45
2023-09-04T18:00:02.194Z,19.44
2023-09-04T18:02:42.392Z,19.35
2023-09-04T18:05:12.480Z,19.28
2023-09-04T18:07:42.870Z,19.15
2023-09-04T18:10:13.081Z,19.14
2023-09-04T18:12:43.520Z,19.10
2023-09-04T18:15:13.871Z,19.01
2023-09-04T18:17:43.804Z,19.00
2023-09-04T18:20:14.152Z,18.90
2023-09-04T18:22:46.201Z,18.92
2023-09-04T18:25:17.947Z,18.83
2023-09-04T18:27:48.255Z,18.72
2023-09-04T18:30:18.356Z,18.79
2023-09-04T18:32:48.456Z,18.82
2023-09-04T18:35:18.591Z,18.76
2023-09-04T18:37:49.340Z,18.76
2023-09-04T18:40:19.527Z,18.63
2023-09-04T18:42:49.682Z,18.63
2023-09-04T18:45:19.957Z,18.63
2023-09-04T18:47:50.127Z,18.60
2023-09-04T18:50:20.215Z,18.52
2023-09-04T18:52:50.323Z,18.53
2023-09-04T18:55:20.475Z,18.41
2023-09-04T18:57:50.580Z,18.31
2023-09-04T19:00:20.711Z,18.31
2023-09-04T19:02:50.604Z,18.22
2023-09-04T19:05:20.718Z,18.19
2023-09-04T19:07:50.568Z,18.16
2023-09-04T19:10:20.644Z,18.12
2023-09-04T19:12:51.267Z,18.04
2023-09-04T19:15:21.382Z,18.01
2023-09-04T19:17:51.514Z,17.92
2023-09-04T19:20:23.144Z,17.84
2023-09-04T19:22:53.354Z,17.75
2023-09-04T19:25:23.668Z,17.71
2023-09-04T19:27:54.467Z,17.69
2023-09-04T19:30:27.830Z,17.61
2023-09-04T19:32:59.192Z,17.57
2023-09-04T19:35:29.429Z,17.55
2023-09-04T19:37:59.845Z,17.57
2023-09-04T19:40:29.953Z,17.60
2023-09-04T19:43:00.034Z,17.61
2023-09-04T19:45:30.709Z,17.67
2023-09-04T19:48:00.909Z,17.67
2023-09-04T19:50:31.015Z,17.64
2023-09-04T19:53:01.107Z,17.60
2023-09-04T19:55:33.314Z,17.59
2023-09-04T19:58:03.766Z,17.53
2023-09-04T20:00:33.825Z,17.54
2023-09-04T20:03:04.681Z,17.51
2023-09-04T20:05:34.871Z,17.51
2023-09-04T20:08:05.076Z,17.50
2023-09-04T20:10:37.580Z,17.54
2023-09-04T20:13:08.070Z,17.53
2023-09-04T20:15:38.218Z,17.53
2023-09-04T20:18:08.537Z,17.55
2023-09-04T20:20:40.098Z,17.54
2023-09-04T20:23:10.237Z,17.57
2023-09-04T20:25:40.155Z,17.60
2023-09-04T20:28:10.100Z,17.54
2023-09-04T20:30:40.265Z,17.51
2023-09-04T20:33:10.331Z,17.50
2023-09-04T20:35:40.474Z,17.51
2023-09-04T20:38:10.536Z,17.49
2023-09-04T20:40:40.656Z,17.53
2023-09-04T20:43:10.463Z,17.53
2023-09-04T20:45:40.571Z,17.51
2023-09-04T20:48:11.196Z,17.50
2023-09-04T20:50:41.242Z,17.47
2023-09-04T20:53:13.268Z,17.41
2023-09-04T20:55:45.162Z,17.43
2023-09-04T20:58:15.248Z,17.41
2023-09-04T21:00:46.804Z,17.36
2023-09-04T21:03:16.957Z,17.36
2023-09-04T21:05:47.691Z,17.33
2023-09-04T21:08:17.785Z,17.31
2023-09-04T21:10:47.476Z,17.29
2023-09-04T21:13:35.319Z,17.34
2023-09-04T21:16:23.940Z,17.34
2023-09-04T21:19:12.298Z,17.33
2023-09-04T21:22:00.637Z,17.37
2023-09-04T21:24:48.596Z,17.29
2023-09-04T21:27:36.936Z,17.34
2023-09-04T21:30:25.663Z,17.29
2023-09-04T21:33:14.171Z,17.29
2023-09-04T21:36:02.434Z,17.26
2023-09-04T21:38:50.636Z,17.30
2023-09-04T21:41:38.933Z,17.30
2023-09-04T21:44:27.152Z,17.31
2023-09-04T21:47:15.316Z,17.30
2023-09-04T21:50:03.822Z,17.26
2023-09-04T21:52:52.295Z,17.29
2023-09-04T21:55:40.555Z,17.20
2023-09-04T21:58:29.336Z,17.27
2023-09-04T22:01:17.414Z,17.26
2023-09-04T22:04:05.726Z,17.30
2023-09-04T22:06:53.976Z,17.34
2023-09-04T22:09:42.276Z,17.23
2023-09-04T22:12:30.494Z,17.19
2023-09-04T22:15:19.581Z,17.20
2023-09-04T22:18:12.622Z,17.22
2023-09-04T22:21:00.931Z,17.27
2023-09-04T22:23:49.213Z,17.27
2023-09-04T22:26:37.537Z,17.20
2023-09-04T22:29:25.922Z,17.23
2023-09-04T22:32:13.894Z,17.18
2023-09-04T22:35:02.294Z,17.13
2023-09-04T22:37:50.753Z,17.10
2023-09-04T22:40:39.088Z,17.06
2023-09-04T22:43:27.501Z,17.02
2023-09-04T22:46:15.998Z,16.99
2023-09-04T22:49:04.191Z,16.96
2023-09-04T22:51:52.556Z,16.98
2023-09-04T22:54:40.803Z,16.93
2023-09-04T22:57:29.346Z,16.88
2023-09-04T23:00:17.625Z,16.92
2023-09-04T23:03:06.811Z,16.90
2023-09-04T23:05:54.840Z,16.96
2023-09-04T23:08:43.011Z,17.00
2023-09-04T23:11:31.155Z,16.99
2023-09-04T23:14:19.577Z,17.00
2023-09-04T23:17:08.058Z,17.03
2023-09-04T23:19:56.475Z,17.00
2023-09-04T23:22:26.924Z,16.98
2023-09-04T23:24:57.143Z,17.02
2023-09-04T23:27:31.461Z,16.98
2023-09-04T23:30:07.326Z,17.02
2023-09-04T23:32:55.797Z,17.02
2023-09-04T23:35:51.825Z,17.02
2023-09-04T23:38:31.819Z,17.05
2023-09-04T23:41:20.069Z,17.03
2023-09-04T23:44:08.685Z,17.02
2023-09-04T23:46:39.381Z,16.99
2023-09-04T23:49:10.712Z,16.98
2023-09-04T23:51:41.818Z,16.96
2023-09-04T23:54:12.628Z,16.96
2023-09-04T23:56:45.331Z,16.96
2023-09-04T23:59:16.013Z,17.05
